Time;durP1;ratioP1;P1;durP2;ratioP2;P2;SDS_P1;SDS_P2;PMS_P1;PMS_P2;Temp;Humidity;BMP_temperature;BMP_pressure;BME280_temperature;BME280_humidity;BME280_pressure;Samples;Min_cycle;Max_cycle;Signal;HPM_P1;HPM_P2
2024/02/25 00:00:33;;;;;;;6.75;4.97;;;4.70;99.90;;;;;;5055096;28;20051;-76
2024/02/25 00:02:58;;;;;;;5.85;4.75;;;4.60;99.90;;;;;;5054745;28;20125;-75
2024/02/25 00:05:24;;;;;;;7.22;4.78;;;4.70;99.90;;;;;;5049982;28;20491;-75
2024/02/25 00:07:50;;;;;;;7.88;4.85;;;4.70;99.90;;;;;;5064590;28;20036;-76
2024/02/25 00:10:16;;;;;;;7.22;5.20;;;4.70;99.90;;;;;;5041808;28;20511;-76
2024/02/25 00:12:41;;;;;;;5.57;4.35;;;4.70;99.90;;;;;;5042275;28;20508;-76
2024/02/25 00:15:08;;;;;;;8.23;4.88;;;4.70;99.90;;;;;;5037851;28;20052;-75
2024/02/25 00:17:33;;;;;;;6.45;4.35;;;4.70;99.90;;;;;;5059351;28;20044;-76
2024/02/25 00:19:59;;;;;;;6.70;4.47;;;4.70;99.90;;;;;;5062945;28;20036;-75
2024/02/25 00:22:25;;;;;;;7.95;4.43;;;4.70;99.90;;;;;;5049877;28;20039;-77
2024/02/25 00:24:50;;;;;;;7.78;4.75;;;4.70;99.90;;;;;;5046276;28;20067;-75
2024/02/25 00:27:16;;;;;;;7.00;4.30;;;4.70;99.90;;;;;;5049067;28;20044;-75
2024/02/25 00:29:42;;;;;;;8.23;4.80;;;4.70;99.90;;;;;;5066460;28;20995;-75
2024/02/25 00:32:08;;;;;;;7.88;4.68;;;4.80;99.90;;;;;;5055908;28;20072;-75
2024/02/25 00:34:34;;;;;;;5.72;4.30;;;4.70;99.90;;;;;;5047119;28;20109;-75
2024/02/25 00:37:00;;;;;;;7.32;4.60;;;4.80;99.90;;;;;;5043921;28;20443;-75
2024/02/25 00:39:26;;;;;;;6.63;5.05;;;4.70;99.90;;;;;;5062748;28;20056;-75
2024/02/25 00:41:52;;;;;;;8.02;4.60;;;4.70;99.90;;;;;;5052745;28;20390;-75
2024/02/25 00:44:18;;;;;;;7.30;4.70;;;4.70;99.90;;;;;;5050766;28;20044;-75
2024/02/25 00:46:46;;;;;;;8.00;5.07;;;4.70;99.90;;;;;;5064702;28;20040;-75
2024/02/25 00:49:12;;;;;;;7.13;4.95;;;4.70;99.90;;;;;;5056329;28;20446;-76
2024/02/25 00:51:39;;;;;;;8.18;5.10;;;4.70;99.90;;;;;;5039214;28;20395;-75
2024/02/25 00:54:05;;;;;;;7.68;5.18;;;4.80;99.90;;;;;;5049744;28;20068;-75
2024/02/25 00:56:33;;;;;;;7.97;4.93;;;4.80;99.90;;;;;;5052982;28;20259;-74
2024/02/25 00:58:59;;;;;;;6.45;4.65;;;4.80;99.90;;;;;;5077532;28;20047;-75
2024/02/25 01:01:26;;;;;;;8.70;5.28;;;4.90;99.90;;;;;;5054195;28;20443;-75
2024/02/25 01:03:51;;;;;;;7.25;5.00;;;4.80;99.90;;;;;;5053684;28;20052;-75
2024/02/25 01:06:17;;;;;;;7.25;5.00;;;4.80;99.90;;;;;;5063642;28;20109;-75
2024/02/25 01:08:46;;;;;;;6.72;5.05;;;4.80;99.90;;;;;;5063574;28;20043;-75
2024/02/25 01:11:12;;;;;;;6.85;5.00;;;4.80;99.90;;;;;;5052136;28;20040;-75
2024/02/25 01:13:38;;;;;;;7.43;4.95;;;4.80;99.90;;;;;;5057265;28;20106;-74
2024/02/25 01:16:04;;;;;;;6.63;4.97;;;4.80;99.90;;;;;;5057882;28;20047;-75
2024/02/25 01:18:33;;;;;;;7.78;5.03;;;4.80;99.90;;;;;;5053190;28;20050;-75
2024/02/25 01:20:59;;;;;;;7.07;4.72;;;4.80;99.90;;;;;;5043204;28;20037;-75
2024/02/25 01:23:25;;;;;;;7.70;5.45;;;4.80;99.90;;;;;;5045143;28;20074;-75
2024/02/25 01:25:51;;;;;;;7.97;4.93;;;4.80;99.90;;;;;;5060968;28;20068;-75
2024/02/25 01:28:17;;;;;;;8.85;5.35;;;4.80;99.90;;;;;;5058309;28;20103;-75
2024/02/25 01:30:45;;;;;;;6.28;4.72;;;4.80;99.90;;;;;;5058107;28;20044;-75
2024/02/25 01:33:11;;;;;;;6.00;4.85;;;4.90;99.90;;;;;;5037723;28;20051;-74
2024/02/25 01:35:37;;;;;;;8.50;5.22;;;4.90;99.90;;;;;;5053500;28;20044;-75
2024/02/25 01:38:05;;;;;;;6.95;4.50;;;4.90;99.90;;;;;;5055652;28;20040;-75
2024/02/25 01:40:34;;;;;;;7.97;4.60;;;4.80;99.90;;;;;;5058218;28;20093;-75
2024/02/25 01:43:17;;;;;;;6.05;4.55;;;4.90;99.90;;;;;;5041930;28;20094;-75
2024/02/25 01:45:44;;;;;;;7.28;4.60;;;4.80;99.90;;;;;;5056630;28;20044;-74
2024/02/25 01:48:10;;;;;;;6.68;4.40;;;4.80;99.90;;;;;;5052333;28;20032;-76
2024/02/25 01:50:40;;;;;;;7.40;4.88;;;4.90;99.90;;;;;;5049796;28;20044;-75
2024/02/25 01:53:07;;;;;;;6.40;4.25;;;4.80;99.90;;;;;;5055015;28;20055;-75
2024/02/25 01:55:35;;;;;;;6.22;4.30;;;4.90;99.90;;;;;;5043314;28;20046;-76
2024/02/25 01:58:03;;;;;;;6.82;4.68;;;4.90;99.90;;;;;;5034194;28;20361;-75
2024/02/25 02:00:30;;;;;;;7.13;4.20;;;4.90;99.90;;;;;;5050564;28;20106;-75
2024/02/25 02:02:59;;;;;;;6.72;4.07;;;4.90;99.90;;;;;;5063083;28;20528;-75
2024/02/25 02:05:25;;;;;;;6.20;4.30;;;4.90;99.90;;;;;;5047330;28;20050;-75
2024/02/25 02:07:52;;;;;;;7.03;4.20;;;4.90;99.90;;;;;;5062865;28;20048;-75
2024/02/25 02:10:18;;;;;;;7.63;4.28;;;5.00;99.90;;;;;;5056331;28;20082;-76
2024/02/25 02:12:45;;;;;;;6.75;3.92;;;5.00;99.90;;;;;;5040379;28;20074;-76
2024/02/25 02:15:12;;;;;;;5.93;3.80;;;5.00;99.90;;;;;;5057092;28;20082;-76
2024/02/25 02:17:40;;;;;;;4.75;3.40;;;5.00;99.90;;;;;;5059885;28;20044;-75
2024/02/25 02:20:16;;;;;;;6.50;3.65;;;5.00;99.90;;;;;;5047081;28;20549;-75
2024/02/25 02:22:42;;;;;;;6.50;3.78;;;5.00;99.90;;;;;;5065829;28;20571;-75
2024/02/25 02:25:09;;;;;;;5.43;3.47;;;5.00;99.90;;;;;;5043235;28;20071;-75
2024/02/25 02:27:38;;;;;;;6.95;3.30;;;5.10;99.90;;;;;;5057534;28;20048;-75
2024/02/25 02:30:08;;;;;;;6.15;3.22;;;5.00;99.90;;;;;;5061347;28;20139;-75
2024/02/25 02:32:35;;;;;;;5.90;3.30;;;5.10;99.90;;;;;;5034399;28;20079;-75
2024/02/25 02:35:02;;;;;;;5.80;3.40;;;5.10;99.90;;;;;;5050444;28;20072;-76
2024/02/25 02:37:29;;;;;;;6.60;3.65;;;5.10;99.90;;;;;;5051011;28;20489;-76
2024/02/25 02:39:54;;;;;;;6.22;3.20;;;5.10;99.90;;;;;;5049866;28;20052;-76
2024/02/25 02:42:20;;;;;;;5.80;3.13;;;5.10;99.90;;;;;;5036862;28;20041;-76
2024/02/25 02:44:48;;;;;;;5.40;3.50;;;5.10;99.90;;;;;;5040594;28;20049;-76
2024/02/25 02:47:19;;;;;;;5.53;3.67;;;5.10;99.90;;;;;;5041375;28;20494;-76
2024/02/25 02:49:45;;;;;;;6.53;3.63;;;5.10;99.90;;;;;;5039887;28;20385;-77
2024/02/25 02:52:10;;;;;;;5.90;3.60;;;5.10;99.90;;;;;;5047227;28;20044;-77
2024/02/25 02:54:37;;;;;;;6.03;3.15;;;5.00;99.90;;;;;;5055466;28;20067;-76
2024/02/25 02:57:03;;;;;;;4.93;3.28;;;5.00;99.90;;;;;;5060521;28;20048;-76
2024/02/25 02:59:28;;;;;;;4.85;3.00;;;5.00;99.90;;;;;;5038796;28;20051;-73
2024/02/25 03:01:58;;;;;;;7.00;3.30;;;5.00;99.90;;;;;;5050274;28;20047;-73
2024/02/25 03:04:23;;;;;;;4.93;3.10;;;5.10;99.90;;;;;;5042148;28;20641;-74
2024/02/25 03:06:49;;;;;;;7.90;3.13;;;5.10;99.90;;;;;;5048179;28;20040;-73
2024/02/25 03:09:15;;;;;;;6.45;3.05;;;5.00;99.90;;;;;;5047238;28;20166;-74
2024/02/25 03:11:41;;;;;;;5.20;2.80;;;5.00;99.90;;;;;;5055931;28;20478;-73
2024/02/25 03:14:07;;;;;;;4.70;3.17;;;5.00;99.90;;;;;;5041454;28;20047;-73
2024/02/25 03:16:33;;;;;;;6.95;3.63;;;5.00;99.90;;;;;;5037162;28;20048;-73
2024/02/25 03:18:58;;;;;;;5.05;2.95;;;5.00;99.90;;;;;;5055617;28;20048;-74
2024/02/25 03:21:24;;;;;;;6.53;3.58;;;5.00;99.90;;;;;;5060827;28;20052;-73
2024/02/25 03:23:50;;;;;;;5.63;3.28;;;5.00;99.90;;;;;;5036711;28;20180;-73
2024/02/25 03:26:17;;;;;;;6.35;3.55;;;5.00;99.90;;;;;;5038009;28;20377;-73
2024/02/25 03:28:43;;;;;;;6.00;3.70;;;5.00;99.90;;;;;;5041389;28;20508;-73
2024/02/25 03:31:09;;;;;;;7.18;4.40;;;4.90;99.90;;;;;;5038786;28;20457;-74
2024/02/25 03:33:36;;;;;;;7.53;3.90;;;4.90;99.90;;;;;;5048890;28;20048;-73
2024/02/25 03:36:05;;;;;;;6.00;3.85;;;4.90;99.90;;;;;;5056310;28;20040;-74
2024/02/25 03:38:34;;;;;;;5.95;4.07;;;4.90;99.90;;;;;;5055469;28;20055;-73
2024/02/25 03:41:00;;;;;;;6.93;3.85;;;4.90;99.90;;;;;;5057209;28;20389;-74
2024/02/25 03:43:25;;;;;;;5.05;4.00;;;4.80;99.90;;;;;;5044236;28;20055;-73
2024/02/25 03:45:51;;;;;;;5.18;3.65;;;4.90;99.90;;;;;;5054637;28;20246;-73
2024/02/25 03:48:17;;;;;;;6.18;4.47;;;4.80;99.90;;;;;;5056330;28;20051;-74
2024/02/25 03:50:43;;;;;;;5.63;3.90;;;4.80;99.90;;;;;;5035082;28;20131;-73
2024/02/25 03:53:08;;;;;;;6.85;4.03;;;4.80;99.90;;;;;;5062257;28;20032;-73
2024/02/25 03:55:34;;;;;;;7.60;4.30;;;4.80;99.90;;;;;;5057528;28;20053;-73
2024/02/25 03:58:00;;;;;;;5.47;4.22;;;4.80;99.90;;;;;;5048668;28;20115;-73
2024/02/25 04:00:27;;;;;;;6.20;4.20;;;4.80;99.90;;;;;;5054097;28;20618;-73
2024/02/25 04:02:53;;;;;;;6.70;4.13;;;4.80;99.90;;;;;;5062444;28;20045;-73
2024/02/25 04:05:19;;;;;;;6.65;4.22;;;4.80;99.90;;;;;;5067137;28;20539;-73
2024/02/25 04:07:46;;;;;;;5.97;3.67;;;4.80;99.90;;;;;;5046826;28;20047;-73
2024/02/25 04:10:12;;;;;;;6.40;4.25;;;4.80;99.90;;;;;;5061729;28;20047;-76
2024/02/25 04:12:39;;;;;;;5.63;4.35;;;4.80;99.90;;;;;;5054505;28;20105;-76
2024/02/25 04:15:07;;;;;;;5.68;4.00;;;4.80;99.90;;;;;;5059516;28;20105;-76
2024/02/25 04:17:36;;;;;;;6.25;4.15;;;4.80;99.90;;;;;;5059936;28;20052;-76
2024/02/25 04:20:02;;;;;;;7.35;4.05;;;4.90;99.90;;;;;;5039792;28;20044;-75
2024/02/25 04:22:28;;;;;;;6.40;4.93;;;4.80;99.90;;;;;;5046810;28;20052;-76
2024/02/25 04:24:54;;;;;;;7.32;5.03;;;4.80;99.90;;;;;;5042612;28;20091;-76
2024/02/25 04:27:20;;;;;;;6.43;4.93;;;4.80;99.90;;;;;;5062542;28;20137;-77
2024/02/25 04:29:46;;;;;;;5.85;5.25;;;4.90;99.90;;;;;;5064225;28;20130;-76
2024/02/25 04:32:12;;;;;;;6.50;5.10;;;4.90;99.90;;;;;;5056359;28;20472;-76
2024/02/25 04:34:39;;;;;;;6.95;5.68;;;4.90;99.90;;;;;;5052391;28;20566;-76
2024/02/25 04:37:05;;;;;;;8.77;6.32;;;4.90;99.90;;;;;;5047856;28;20048;-76
2024/02/25 04:39:31;;;;;;;9.45;6.00;;;4.90;99.90;;;;;;5060303;28;20040;-76
2024/02/25 04:41:59;;;;;;;9.82;7.47;;;4.90;99.90;;;;;;5037207;28;20470;-76
2024/02/25 04:44:25;;;;;;;7.88;6.30;;;4.90;99.90;;;;;;5057746;28;20093;-77
2024/02/25 04:46:51;;;;;;;7.22;6.47;;;4.90;99.90;;;;;;5053506;28;20439;-76
2024/02/25 04:49:17;;;;;;;9.45;7.18;;;4.90;99.90;;;;;;5068103;28;20124;-76
2024/02/25 04:51:44;;;;;;;8.40;7.57;;;4.90;99.90;;;;;;5049908;28;21566;-76
2024/02/25 04:54:12;;;;;;;8.40;7.63;;;4.90;99.90;;;;;;5054744;28;20433;-76
2024/02/25 04:56:42;;;;;;;8.77;7.82;;;4.90;99.90;;;;;;5058735;28;20076;-76
2024/02/25 04:59:08;;;;;;;9.65;8.75;;;4.90;99.90;;;;;;5046134;28;20496;-76
2024/02/25 05:01:34;;;;;;;9.98;8.98;;;4.80;99.90;;;;;;5043026;28;20055;-76
2024/02/25 05:04:00;;;;;;;8.75;7.90;;;4.80;99.90;;;;;;5056418;28;20087;-77
2024/02/25 05:06:26;;;;;;;9.32;7.80;;;4.80;99.90;;;;;;5046679;28;20044;-76
2024/02/25 05:08:52;;;;;;;9.63;8.73;;;4.80;99.90;;;;;;5045722;28;20469;-76
2024/02/25 05:11:18;;;;;;;10.10;8.65;;;4.80;99.90;;;;;;5063267;28;20052;-76
2024/02/25 05:13:44;;;;;;;9.32;8.40;;;4.80;99.90;;;;;;5055674;28;20110;-77
2024/02/25 05:16:13;;;;;;;11.63;10.40;;;4.90;99.90;;;;;;5051805;28;20072;-77
2024/02/25 05:18:40;;;;;;;11.73;8.35;;;4.90;99.90;;;;;;5056888;28;20062;-76
2024/02/25 05:21:06;;;;;;;9.80;8.77;;;4.90;99.90;;;;;;5058777;28;20105;-77
2024/02/25 05:23:32;;;;;;;10.60;9.57;;;4.80;99.90;;;;;;5059238;28;20102;-76
2024/02/25 05:25:58;;;;;;;10.90;9.38;;;4.90;99.90;;;;;;5054929;28;20420;-77
2024/02/25 05:28:24;;;;;;;11.05;9.43;;;4.90;99.90;;;;;;5057950;28;20032;-77
2024/02/25 05:30:51;;;;;;;10.45;9.38;;;4.90;99.90;;;;;;5053917;28;20094;-76
2024/02/25 05:33:17;;;;;;;10.90;9.23;;;4.90;99.90;;;;;;5046372;28;20052;-76
2024/02/25 05:35:43;;;;;;;11.02;9.93;;;4.90;99.90;;;;;;5067100;28;20408;-76
2024/02/25 05:38:13;;;;;;;12.13;10.82;;;4.90;99.90;;;;;;5052546;28;20051;-76
2024/02/25 05:40:41;;;;;;;12.07;10.85;;;4.90;99.90;;;;;;5063995;28;20044;-76
2024/02/25 05:43:07;;;;;;;11.90;10.45;;;4.90;99.90;;;;;;5055473;28;20051;-76
2024/02/25 05:45:33;;;;;;;12.52;9.70;;;4.90;99.90;;;;;;5046654;28;20484;-76
2024/02/25 05:47:59;;;;;;;11.40;9.95;;;4.90;99.90;;;;;;5056040;28;20040;-76
2024/02/25 05:50:25;;;;;;;12.48;11.18;;;4.90;99.90;;;;;;5055687;28;20068;-76
2024/02/25 05:52:51;;;;;;;11.85;9.50;;;4.90;99.90;;;;;;5039869;28;20545;-77
2024/02/25 05:55:19;;;;;;;10.77;9.63;;;5.00;99.90;;;;;;5059124;28;20044;-77
2024/02/25 05:57:45;;;;;;;11.27;10.18;;;4.90;99.90;;;;;;5042876;28;20044;-77
2024/02/25 06:00:11;;;;;;;12.85;11.60;;;4.90;99.90;;;;;;5045845;28;21283;-77
2024/02/25 06:02:44;;;;;;;11.32;10.02;;;4.90;99.90;;;;;;5035721;28;20036;-76
2024/02/25 06:05:17;;;;;;;10.75;9.75;;;4.90;99.90;;;;;;5032045;28;20480;-77
2024/02/25 06:07:43;;;;;;;11.57;9.90;;;5.00;99.90;;;;;;5034127;28;20052;-77
2024/02/25 06:10:09;;;;;;;11.07;10.07;;;4.90;99.90;;;;;;5052566;28;20518;-76
2024/02/25 06:12:37;;;;;;;11.80;10.20;;;4.90;99.90;;;;;;5070314;28;20407;-77
2024/02/25 06:15:11;;;;;;;11.13;10.02;;;5.00;99.90;;;;;;5046639;28;20040;-77
2024/02/25 06:17:38;;;;;;;10.45;9.35;;;5.00;99.90;;;;;;5056300;28;20525;-76
2024/02/25 06:20:06;;;;;;;10.43;8.85;;;5.00;99.90;;;;;;5044439;28;20422;-76
2024/02/25 06:22:34;;;;;;;12.15;10.43;;;5.00;99.90;;;;;;5062984;28;20044;-75
2024/02/25 06:24:59;;;;;;;10.50;8.82;;;5.00;99.90;;;;;;5067907;28;20051;-76
2024/02/25 06:27:25;;;;;;;9.48;8.45;;;5.00;99.90;;;;;;5063076;28;20075;-78
2024/02/25 06:29:51;;;;;;;9.68;8.77;;;5.00;99.90;;;;;;5044806;28;20112;-73
2024/02/25 06:32:17;;;;;;;10.93;9.23;;;5.00;99.90;;;;;;5042896;28;20115;-73
2024/02/25 06:34:42;;;;;;;8.68;7.78;;;5.00;99.90;;;;;;5053635;28;20046;-73
2024/02/25 06:37:08;;;;;;;8.63;7.82;;;5.00;99.90;;;;;;5065528;28;20042;-73
2024/02/25 06:39:34;;;;;;;9.10;8.20;;;5.10;99.90;;;;;;5047927;28;20132;-73
2024/02/25 06:42:00;;;;;;;8.45;7.53;;;5.00;99.90;;;;;;5065407;28;20396;-74
2024/02/25 06:44:25;;;;;;;8.98;8.00;;;5.10;99.90;;;;;;5044872;28;20144;-73
2024/02/25 06:46:52;;;;;;;8.48;7.65;;;5.10;99.90;;;;;;5066163;28;20051;-73
2024/02/25 06:49:17;;;;;;;7.95;7.15;;;5.10;99.90;;;;;;5045255;28;20499;-73
2024/02/25 06:51:43;;;;;;;8.82;6.60;;;5.10;99.90;;;;;;5045256;28;20079;-73
2024/02/25 06:54:09;;;;;;;8.43;7.53;;;5.10;99.90;;;;;;5048169;28;20043;-73
2024/02/25 06:56:34;;;;;;;8.27;7.47;;;5.10;99.90;;;;;;5061171;28;20043;-73
2024/02/25 06:59:00;;;;;;;9.88;8.10;;;5.20;99.90;;;;;;5066994;28;20040;-73
2024/02/25 07:01:26;;;;;;;8.48;7.40;;;5.20;99.90;;;;;;5048555;28;20045;-73
2024/02/25 07:03:52;;;;;;;7.50;6.68;;;5.20;99.90;;;;;;5050204;28;20051;-77
2024/02/25 07:06:18;;;;;;;8.18;5.97;;;5.20;99.90;;;;;;5051789;28;20032;-76
2024/02/25 07:08:44;;;;;;;7.22;5.93;;;5.20;99.90;;;;;;5053470;28;20323;-76
2024/02/25 07:11:28;;;;;;;8.02;6.63;;;5.20;99.90;;;;;;5054546;28;20407;-76
2024/02/25 07:13:54;;;;;;;6.57;5.80;;;5.20;99.90;;;;;;5064725;28;20416;-76
2024/02/25 07:16:20;;;;;;;8.15;5.80;;;5.30;99.90;;;;;;5064246;28;20036;-75
2024/02/25 07:18:45;;;;;;;6.95;5.85;;;5.20;99.90;;;;;;5069116;28;20051;-75
2024/02/25 07:21:13;;;;;;;7.65;5.65;;;5.30;99.90;;;;;;5051044;28;20040;-76
2024/02/25 07:23:43;;;;;;;7.25;5.70;;;5.30;99.90;;;;;;5051406;28;20051;-76
2024/02/25 07:26:11;;;;;;;6.93;6.22;;;5.20;99.90;;;;;;5057622;28;20056;-76
2024/02/25 07:28:41;;;;;;;6.63;5.93;;;5.30;99.90;;;;;;5043383;28;20408;-75
2024/02/25 07:31:18;;;;;;;7.82;7.03;;;5.30;99.90;;;;;;5063801;28;20040;-76
2024/02/25 07:33:45;;;;;;;7.63;6.53;;;5.30;99.90;;;;;;5063418;28;20044;-76
2024/02/25 07:36:16;;;;;;;8.13;6.72;;;5.30;99.90;;;;;;5067074;28;20523;-76
2024/02/25 07:38:42;;;;;;;8.07;6.65;;;5.30;99.90;;;;;;5047360;28;20048;-76
2024/02/25 07:41:08;;;;;;;7.68;6.13;;;5.30;99.90;;;;;;5046543;28;20131;-76
2024/02/25 07:43:35;;;;;;;6.30;5.70;;;5.30;99.90;;;;;;5045119;28;20496;-76
2024/02/25 07:46:02;;;;;;;7.88;6.53;;;5.50;99.90;;;;;;5047237;28;20048;-76
2024/02/25 07:48:28;;;;;;;8.75;7.03;;;5.40;99.90;;;;;;5047306;28;20090;-76
2024/02/25 07:50:54;;;;;;;7.18;6.00;;;5.40;99.90;;;;;;5061952;28;20081;-76
2024/02/25 07:53:20;;;;;;;7.28;6.57;;;5.40;99.90;;;;;;5056077;28;20143;-77
2024/02/25 07:55:46;;;;;;;8.18;7.38;;;5.40;99.90;;;;;;5051017;28;20241;-75
2024/02/25 07:58:12;;;;;;;8.45;7.55;;;5.40;99.90;;;;;;5044373;28;20538;-75
2024/02/25 08:00:37;;;;;;;9.05;6.97;;;5.40;99.90;;;;;;5062481;28;20059;-76
2024/02/25 08:03:04;;;;;;;8.57;7.65;;;5.40;99.90;;;;;;5055951;28;20040;-76
2024/02/25 08:05:29;;;;;;;7.57;6.78;;;5.40;99.90;;;;;;5066868;28;20048;-76
2024/02/25 08:07:55;;;;;;;8.10;7.15;;;5.40;99.90;;;;;;5066520;28;20094;-76
2024/02/25 08:10:21;;;;;;;7.78;6.97;;;5.40;99.90;;;;;;5079827;28;20044;-76
2024/02/25 08:12:48;;;;;;;9.32;7.40;;;5.60;99.90;;;;;;5054277;28;20041;-76
2024/02/25 08:15:14;;;;;;;10.68;7.85;;;5.50;99.90;;;;;;5076843;28;20983;-76
2024/02/25 08:17:40;;;;;;;8.05;7.25;;;5.50;99.90;;;;;;5063589;28;20036;-76
2024/02/25 08:20:07;;;;;;;8.93;8.07;;;5.50;99.90;;;;;;5063172;28;20049;-75
2024/02/25 08:22:34;;;;;;;8.77;7.45;;;5.60;99.90;;;;;;5053035;28;20131;-76
2024/02/25 08:25:00;;;;;;;8.63;7.72;;;5.60;99.90;;;;;;5061455;28;20512;-76
2024/02/25 08:27:29;;;;;;;8.52;7.53;;;5.70;99.90;;;;;;5052885;28;20071;-74
2024/02/25 08:30:05;;;;;;;9.50;8.48;;;5.70;99.90;;;;;;5046535;28;20445;-74
2024/02/25 08:32:32;;;;;;;8.73;7.82;;;5.80;99.90;;;;;;5052201;28;20041;-74
2024/02/25 08:34:58;;;;;;;9.52;8.63;;;5.80;99.90;;;;;;5049512;28;20041;-74
2024/02/25 08:37:25;;;;;;;9.90;7.80;;;5.80;99.90;;;;;;5067568;28;20043;-74
2024/02/25 08:39:52;;;;;;;8.88;7.97;;;5.90;99.90;;;;;;5059730;28;20057;-74
2024/02/25 08:42:18;;;;;;;8.68;7.88;;;5.90;99.90;;;;;;5063793;28;20052;-74
2024/02/25 08:44:45;;;;;;;8.90;8.00;;;5.90;99.90;;;;;;5048521;28;20654;-74
2024/02/25 08:47:11;;;;;;;9.05;7.78;;;5.90;99.90;;;;;;5046043;28;20055;-74
2024/02/25 08:49:37;;;;;;;8.43;7.63;;;6.00;99.90;;;;;;5065551;28;20044;-74
2024/02/25 08:52:07;;;;;;;9.85;8.40;;;6.00;99.90;;;;;;5070205;28;20051;-74
2024/02/25 08:54:33;;;;;;;8.65;7.75;;;6.00;99.90;;;;;;5070028;28;20042;-74
2024/02/25 08:57:00;;;;;;;8.55;7.65;;;6.00;99.90;;;;;;5065606;28;20080;-74
2024/02/25 08:59:26;;;;;;;9.75;8.85;;;6.00;99.90;;;;;;5045245;28;20132;-74
2024/02/25 09:01:52;;;;;;;10.50;8.32;;;6.00;99.90;;;;;;5052681;28;20516;-74
2024/02/25 09:04:18;;;;;;;9.35;8.45;;;6.00;99.90;;;;;;5051884;28;20044;-74
2024/02/25 09:06:47;;;;;;;8.43;7.53;;;6.10;99.90;;;;;;5052580;28;20188;-74
2024/02/25 09:09:13;;;;;;;8.38;7.55;;;6.10;99.90;;;;;;5065846;28;20047;-74
2024/02/25 09:11:41;;;;;;;8.73;7.90;;;6.00;99.90;;;;;;5060963;28;20040;-74
2024/02/25 09:14:09;;;;;;;8.88;7.97;;;6.10;99.90;;;;;;5046137;28;20043;-74
2024/02/25 09:16:35;;;;;;;8.73;7.82;;;6.10;99.90;;;;;;5065998;28;20516;-74
2024/02/25 09:19:01;;;;;;;8.98;8.07;;;6.10;99.90;;;;;;5046260;28;20394;-74
2024/02/25 09:21:26;;;;;;;8.70;7.70;;;6.20;99.90;;;;;;5062869;28;20404;-74
2024/02/25 09:23:52;;;;;;;9.43;8.43;;;6.10;99.90;;;;;;5070756;28;20222;-74
2024/02/25 09:26:18;;;;;;;9.02;8.15;;;6.10;99.90;;;;;;5048689;28;20512;-74
2024/02/25 09:28:44;;;;;;;9.73;8.82;;;6.10;99.90;;;;;;5049916;28;20071;-74
2024/02/25 09:31:16;;;;;;;10.13;9.15;;;6.10;99.90;;;;;;5044845;28;20036;-75
2024/02/25 09:33:42;;;;;;;9.60;8.70;;;6.20;99.90;;;;;;5066898;28;20062;-74
2024/02/25 09:36:08;;;;;;;9.77;8.88;;;6.20;99.90;;;;;;5048605;28;20040;-74
2024/02/25 09:38:34;;;;;;;10.73;9.73;;;6.20;99.90;;;;;;5051019;28;20044;-74
2024/02/25 09:41:04;;;;;;;9.65;8.70;;;6.20;99.90;;;;;;5047628;28;20059;-76
2024/02/25 09:43:30;;;;;;;9.93;9.02;;;6.20;99.90;;;;;;5047948;28;20048;-75
2024/02/25 09:45:57;;;;;;;8.90;8.10;;;6.20;99.90;;;;;;5063383;28;20048;-76
2024/02/25 09:48:24;;;;;;;10.05;9.05;;;6.30;99.90;;;;;;5046296;28;20048;-76
2024/02/25 09:50:51;;;;;;;10.68;9.68;;;6.30;99.90;;;;;;5044423;28;20139;-75
2024/02/25 09:53:19;;;;;;;11.13;10.02;;;6.40;99.90;;;;;;5047136;28;20048;-76
2024/02/25 09:55:45;;;;;;;10.52;9.52;;;6.40;99.90;;;;;;5057492;28;20039;-76
2024/02/25 09:58:11;;;;;;;9.88;8.90;;;6.40;99.90;;;;;;5065054;28;20118;-75
2024/02/25 10:00:38;;;;;;;10.40;9.40;;;6.50;99.90;;;;;;5064879;28;20052;-76
2024/02/25 10:03:07;;;;;;;10.50;9.50;;;6.50;99.90;;;;;;5050686;28;20056;-75
2024/02/25 10:05:34;;;;;;;11.63;10.53;;;6.50;99.90;;;;;;5063336;28;20047;-76
2024/02/25 10:08:10;;;;;;;11.93;10.77;;;6.60;99.90;;;;;;5060901;28;20312;-76
2024/02/25 10:10:36;;;;;;;12.05;10.95;;;6.60;99.90;;;;;;5053058;28;20040;-75
2024/02/25 10:13:05;;;;;;;10.68;9.68;;;6.60;99.90;;;;;;5072032;28;20036;-75
2024/02/25 10:15:34;;;;;;;11.05;9.93;;;6.60;99.90;;;;;;5045266;28;20036;-76
2024/02/25 10:18:00;;;;;;;12.15;10.95;;;6.70;99.90;;;;;;5067156;28;20063;-76
2024/02/25 10:20:26;;;;;;;11.40;10.30;;;6.70;99.90;;;;;;5073085;28;20105;-75
2024/02/25 10:23:11;;;;;;;11.57;10.48;;;6.70;99.90;;;;;;5063793;28;20056;-75
2024/02/25 10:25:41;;;;;;;11.93;10.73;;;6.70;99.90;;;;;;5046169;28;20106;-75
2024/02/25 10:28:16;;;;;;;11.52;10.40;;;6.70;99.90;;;;;;5078224;28;20047;-75
2024/02/25 10:31:05;;;;;;;10.93;9.93;;;6.70;99.90;;;;;;5046933;28;20048;-75
2024/02/25 10:33:34;;;;;;;11.27;10.27;;;6.60;99.90;;;;;;5050985;28;20032;-75
2024/02/25 10:36:13;;;;;;;11.48;10.40;;;6.70;99.90;;;;;;5067548;28;20054;-77
2024/02/25 10:38:47;;;;;;;11.80;10.70;;;6.70;99.90;;;;;;5073875;28;20070;-75
2024/02/25 10:41:15;;;;;;;11.63;10.52;;;6.60;99.90;;;;;;5059254;28;20514;-76
2024/02/25 10:43:43;;;;;;;11.23;10.13;;;6.60;99.90;;;;;;5048360;28;20348;-75
2024/02/25 10:46:20;;;;;;;11.45;10.27;;;6.70;99.90;;;;;;5052614;28;20036;-74
2024/02/25 10:48:49;;;;;;;11.73;10.63;;;6.70;99.90;;;;;;5058724;28;20050;-74
2024/02/25 10:51:18;;;;;;;12.05;10.85;;;6.70;99.90;;;;;;5070076;28;20126;-74
2024/02/25 10:53:44;;;;;;;12.13;10.93;;;6.70;99.90;;;;;;5061131;28;20032;-74
2024/02/25 10:56:18;;;;;;;12.75;10.98;;;6.70;99.90;;;;;;5066386;28;20040;-74
2024/02/25 10:58:52;;;;;;;12.32;11.13;;;6.70;99.90;;;;;;5070050;28;20117;-74
2024/02/25 11:01:22;;;;;;;14.00;12.70;;;6.80;99.90;;;;;;5050383;28;20043;-75
2024/02/25 11:03:49;;;;;;;12.90;11.65;;;6.80;99.90;;;;;;5066908;28;20039;-75
2024/02/25 11:06:29;;;;;;;;;;;6.90;99.90;;;;;;5045355;28;20044;-75
2024/02/25 11:09:09;;;;;;;12.43;11.32;;;6.90;99.90;;;;;;5057805;28;19920;-74
2024/02/25 11:11:35;;;;;;;;;;;7.00;99.90;;;;;;5047395;28;20144;-75
2024/02/25 11:14:01;;;;;;;14.27;12.95;;;7.20;99.90;;;;;;5063306;28;19961;-75
2024/02/25 11:16:35;;;;;;;13.25;11.95;;;7.30;99.90;;;;;;5046613;28;20131;-74
2024/02/25 11:19:02;;;;;;;13.32;12.02;;;7.40;99.90;;;;;;5059382;28;20386;-75
2024/02/25 11:21:33;;;;;;;13.25;11.95;;;7.50;99.90;;;;;;5062958;28;20758;-76
2024/02/25 11:23:59;;;;;;;14.07;12.68;;;7.60;99.90;;;;;;5054429;28;20051;-76
2024/02/25 11:26:34;;;;;;;14.57;13.18;;;7.60;99.90;;;;;;5041398;28;20051;-76
2024/02/25 11:29:21;;;;;;;14.68;13.38;;;7.70;99.90;;;;;;5047357;28;20311;-76
2024/02/25 11:31:51;;;;;;;12.73;11.60;;;7.80;99.90;;;;;;5041922;28;20051;-76
2024/02/25 11:34:19;;;;;;;13.15;12.00;;;7.90;99.90;;;;;;5060747;28;20075;-74
2024/02/25 11:36:50;;;;;;;11.45;10.43;;;7.90;99.90;;;;;;5043795;28;20048;-75
2024/02/25 11:39:17;;;;;;;11.85;10.75;;;8.00;99.90;;;;;;5039778;28;20048;-74
2024/02/25 11:41:43;;;;;;;11.73;10.63;;;8.20;99.90;;;;;;5054758;28;20068;-74
2024/02/25 11:44:09;;;;;;;12.27;11.00;;;8.30;99.90;;;;;;5059236;28;20048;-74
2024/02/25 11:46:36;;;;;;;11.35;10.20;;;8.30;99.90;;;;;;5048557;28;20117;-74
2024/02/25 11:49:05;;;;;;;11.75;10.65;;;8.30;99.90;;;;;;5063642;28;20044;-75
2024/02/25 11:51:30;;;;;;;11.98;10.80;;;8.30;99.90;;;;;;5055265;28;20079;-74
2024/02/25 11:53:56;;;;;;;12.10;11.00;;;8.20;99.90;;;;;;5052224;28;20074;-75
2024/02/25 11:56:22;;;;;;;11.75;10.55;;;8.20;99.90;;;;;;5058946;28;20344;-75
2024/02/25 11:58:48;;;;;;;12.07;10.88;;;8.20;99.90;;;;;;5046383;28;20042;-75
2024/02/25 12:01:14;;;;;;;11.82;10.80;;;8.20;99.90;;;;;;5057181;28;20033;-76
2024/02/25 12:03:40;;;;;;;10.40;9.40;;;8.20;99.90;;;;;;5058577;28;20043;-75
2024/02/25 12:06:06;;;;;;;11.05;10.05;;;8.30;99.90;;;;;;5057869;28;20060;-73
2024/02/25 12:08:35;;;;;;;11.05;9.95;;;8.30;99.90;;;;;;5065868;28;20050;-73
2024/02/25 12:11:02;;;;;;;11.68;10.57;;;8.40;99.90;;;;;;5055963;28;20053;-73
2024/02/25 12:13:28;;;;;;;11.40;10.20;;;8.40;99.90;;;;;;5043329;28;20059;-73
2024/02/25 12:15:54;;;;;;;11.50;10.40;;;8.40;99.90;;;;;;5039183;28;20048;-73
2024/02/25 12:18:20;;;;;;;10.93;9.90;;;8.50;99.90;;;;;;5059086;28;20377;-73
2024/02/25 12:20:46;;;;;;;11.40;10.30;;;8.50;99.90;;;;;;5065259;28;20112;-74
2024/02/25 12:23:13;;;;;;;11.52;10.35;;;8.60;99.90;;;;;;5042973;28;20497;-74
2024/02/25 12:25:44;;;;;;;11.10;10.10;;;8.60;99.90;;;;;;5056131;28;20052;-74
2024/02/25 12:28:13;;;;;;;11.27;10.18;;;8.50;99.90;;;;;;5041356;28;20082;-74
2024/02/25 12:30:44;;;;;;;11.15;10.15;;;8.50;99.90;;;;;;5053358;28;20044;-73
2024/02/25 12:33:14;;;;;;;10.32;9.32;;;8.50;99.90;;;;;;5065497;28;20093;-75
2024/02/25 12:35:40;;;;;;;10.75;9.65;;;8.50;99.90;;;;;;5064183;28;20519;-74
2024/02/25 12:38:09;;;;;;;10.55;9.50;;;8.50;99.90;;;;;;5048077;28;20820;-74
2024/02/25 12:40:35;;;;;;;10.45;9.35;;;8.50;99.90;;;;;;5038250;28;20475;-74
2024/02/25 12:43:01;;;;;;;10.30;9.40;;;8.50;99.90;;;;;;5069565;28;20128;-74
2024/02/25 12:45:27;;;;;;;10.98;9.98;;;8.50;99.90;;;;;;5042790;28;20056;-74
2024/02/25 12:47:57;;;;;;;10.05;9.05;;;8.50;99.90;;;;;;5044070;28;20051;-74
2024/02/25 12:50:23;;;;;;;9.93;9.03;;;8.50;99.90;;;;;;5044456;28;20613;-74
2024/02/25 12:52:49;;;;;;;10.30;9.30;;;8.40;99.90;;;;;;5041047;28;20047;-73